createdAt,value
2019-01-10T00:00:28.044Z,0.00
2019-01-10T00:01:28.036Z,0.00
2019-01-10T00:02:28.023Z,0.00
2019-01-10T00:03:28.010Z,0.00
2019-01-10T00:04:28.011Z,0.00
2019-01-10T00:05:27.987Z,0.00
2019-01-10T00:06:27.982Z,0.00
2019-01-10T00:07:27.965Z,0.00
2019-01-10T00:08:27.956Z,0.00
2019-01-10T00:09:27.956Z,0.00
2019-01-10T00:10:27.935Z,0.00
2019-01-10T00:11:27.925Z,0.00
2019-01-10T00:12:27.911Z,0.00
2019-01-10T00:13:27.915Z,0.00
2019-01-10T00:14:27.890Z,0.00
2019-01-10T00:15:27.890Z,0.00
2019-01-10T00:16:27.867Z,0.00
2019-01-10T00:17:27.857Z,0.00
2019-01-10T00:18:27.851Z,0.00
2019-01-10T00:19:27.843Z,0.00
2019-01-10T00:20:27.838Z,0.00
2019-01-10T00:21:27.818Z,0.00
2019-01-10T00:22:27.805Z,0.00
2019-01-10T00:23:27.795Z,0.00
2019-01-10T00:24:27.784Z,0.00
2019-01-10T00:25:27.781Z,0.00
2019-01-10T00:26:27.758Z,0.00
2019-01-10T00:27:27.756Z,0.00
2019-01-10T00:28:27.738Z,0.00
2019-01-10T00:29:27.730Z,0.00
2019-01-10T00:30:27.728Z,0.00
2019-01-10T00:31:27.705Z,0.00
2019-01-10T00:32:27.695Z,0.00
2019-01-10T00:33:27.686Z,0.00
2019-01-10T00:34:27.673Z,0.00
2019-01-10T00:35:27.676Z,0.00
2019-01-10T00:36:27.653Z,0.00
2019-01-10T00:37:27.641Z,0.00
2019-01-10T00:38:27.630Z,0.00
2019-01-10T00:39:27.619Z,0.00
2019-01-10T00:40:27.624Z,0.00
2019-01-10T00:41:27.603Z,0.00
2019-01-10T00:42:27.586Z,0.00
2019-01-10T00:43:27.576Z,0.00
2019-01-10T00:44:27.565Z,0.00
2019-01-10T00:45:27.564Z,0.00
2019-01-10T00:46:27.546Z,0.00
2019-01-10T00:47:27.536Z,0.00
2019-01-10T00:48:27.521Z,0.00
2019-01-10T00:49:27.511Z,0.00
2019-01-10T00:50:27.510Z,0.00
2019-01-10T00:51:27.492Z,0.00
2019-01-10T00:52:27.480Z,0.00
2019-01-10T00:53:27.469Z,0.00
2019-01-10T00:54:27.457Z,0.00
2019-01-10T00:55:27.459Z,0.00
2019-01-10T00:56:27.434Z,0.00
2019-01-10T00:57:27.425Z,0.00
2019-01-10T00:58:27.417Z,0.00
2019-01-10T00:59:27.403Z,0.00
2019-01-10T01:00:27.401Z,0.00
2019-01-10T01:01:27.394Z,0.00
2019-01-10T01:02:27.369Z,0.00
2019-01-10T01:03:27.359Z,0.00
2019-01-10T01:04:27.349Z,0.00
2019-01-10T01:05:27.351Z,0.00
2019-01-10T01:06:27.328Z,0.00
2019-01-10T01:07:27.316Z,0.00
2019-01-10T01:08:27.307Z,0.00
2019-01-10T01:09:27.295Z,0.00
2019-01-10T01:10:27.293Z,0.00
2019-01-10T01:11:27.271Z,0.00
2019-01-10T01:12:27.265Z,0.00
2019-01-10T01:13:27.250Z,0.00
2019-01-10T01:14:27.239Z,0.00
2019-01-10T01:15:27.241Z,0.00
2019-01-10T01:16:27.217Z,0.00
2019-01-10T01:17:27.209Z,0.00
2019-01-10T01:18:27.196Z,0.00
2019-01-10T01:19:27.187Z,0.00
2019-01-10T01:20:27.187Z,0.00
2019-01-10T01:21:27.165Z,0.00
2019-01-10T01:22:27.153Z,0.00
2019-01-10T01:23:27.141Z,0.00
2019-01-10T01:24:27.132Z,0.00
2019-01-10T01:25:27.130Z,0.00
2019-01-10T01:26:27.111Z,0.00
2019-01-10T01:27:27.101Z,0.00
2019-01-10T01:28:27.087Z,0.00
2019-01-10T01:29:27.078Z,0.00
2019-01-10T01:30:27.086Z,0.00
2019-01-10T01:31:27.054Z,0.00
2019-01-10T01:32:27.044Z,0.00
2019-01-10T01:33:27.034Z,0.00
2019-01-10T01:34:27.025Z,0.00
2019-01-10T01:35:27.014Z,0.00
2019-01-10T01:36:27.014Z,0.00
2019-01-10T01:37:26.989Z,0.00
2019-01-10T01:38:26.985Z,0.00
2019-01-10T01:39:26.971Z,0.00
2019-01-10T01:40:26.963Z,0.00
2019-01-10T01:41:26.957Z,0.00
2019-01-10T01:42:26.935Z,0.00
2019-01-10T01:43:26.927Z,0.00
2019-01-10T01:44:26.914Z,0.00
2019-01-10T01:45:26.904Z,0.00
2019-01-10T01:46:26.902Z,0.00
2019-01-10T01:47:26.882Z,0.00
2019-01-10T01:48:26.871Z,0.00
2019-01-10T01:49:26.862Z,0.00
2019-01-10T01:52:57.159Z,0.00
2019-01-10T01:53:44.898Z,0.00
2019-01-10T01:57:14.149Z,0.00
2019-01-10T01:58:03.390Z,0.00
2019-01-10T01:59:03.381Z,0.00
2019-01-10T02:00:03.370Z,0.00
2019-01-10T02:01:03.369Z,0.00
2019-01-10T02:02:03.349Z,0.00
2019-01-10T02:03:03.338Z,0.00
2019-01-10T02:04:03.327Z,0.00
2019-01-10T02:05:03.318Z,0.00
2019-01-10T02:06:03.338Z,0.00
2019-01-10T02:07:03.297Z,0.00
2019-01-10T02:08:03.290Z,0.00
2019-01-10T02:09:03.275Z,0.00
2019-01-10T02:10:03.266Z,0.00
2019-01-10T02:11:03.257Z,0.00
2019-01-10T02:12:03.259Z,0.00
2019-01-10T02:13:03.232Z,0.00
2019-01-10T02:14:03.223Z,0.00
2019-01-10T02:15:03.212Z,0.00
2019-01-10T02:16:03.202Z,0.00
2019-01-10T02:17:03.200Z,0.00
2019-01-10T02:18:03.180Z,0.00
2019-01-10T02:19:03.167Z,0.00
2019-01-10T02:20:03.158Z,0.00
2019-01-10T02:21:03.149Z,0.00
2019-01-10T02:22:03.149Z,0.00
2019-01-10T02:23:03.125Z,0.00
2019-01-10T02:24:03.119Z,0.00
2019-01-10T02:25:03.111Z,0.00
2019-01-10T02:26:03.093Z,0.00
2019-01-10T02:27:03.098Z,0.00
2019-01-10T02:28:03.079Z,0.00
2019-01-10T02:29:03.060Z,0.00
2019-01-10T02:30:03.061Z,0.00
2019-01-10T02:31:03.045Z,0.00
2019-01-10T02:32:03.044Z,0.00
2019-01-10T02:33:03.019Z,0.00
2019-01-10T02:34:03.008Z,0.00
2019-01-10T02:35:02.999Z,0.00
2019-01-10T02:36:02.989Z,0.00
2019-01-10T02:37:02.989Z,0.00
2019-01-10T02:38:02.968Z,0.00
2019-01-10T02:39:02.957Z,0.00
2019-01-10T02:40:02.945Z,0.00
2019-01-10T02:41:02.934Z,0.00
2019-01-10T02:42:02.934Z,0.00
2019-01-10T02:43:02.921Z,0.00
2019-01-10T02:44:02.905Z,0.00
2019-01-10T02:45:02.894Z,0.00
2019-01-10T02:46:02.889Z,0.00
2019-01-10T02:47:02.885Z,0.00
2019-01-10T02:48:02.861Z,0.00
2019-01-10T02:49:02.850Z,0.00
2019-01-10T02:50:02.845Z,0.00
2019-01-10T02:51:02.828Z,0.00
2019-01-10T02:52:02.830Z,0.00
2019-01-10T02:53:02.810Z,0.00
2019-01-10T02:54:02.811Z,0.00
2019-01-10T02:55:02.785Z,0.00
2019-01-10T02:56:02.777Z,0.00
2019-01-10T02:57:02.776Z,0.00
2019-01-10T02:58:02.767Z,0.00
2019-01-10T02:59:02.744Z,0.00
2019-01-10T03:00:02.735Z,0.00
2019-01-10T03:01:02.726Z,0.00
2019-01-10T03:02:02.757Z,0.00
2019-01-10T03:03:02.703Z,0.00
2019-01-10T03:04:02.693Z,0.00
2019-01-10T03:05:02.680Z,0.00
2019-01-10T03:06:02.672Z,0.00
2019-01-10T03:07:02.675Z,0.00
2019-01-10T03:08:02.661Z,0.00
2019-01-10T03:09:02.638Z,0.00
2019-01-10T03:10:02.632Z,0.00
2019-01-10T03:11:02.619Z,0.00
2019-01-10T03:12:02.619Z,0.00
2019-01-10T03:13:02.594Z,0.00
2019-01-10T03:14:02.587Z,0.00
2019-01-10T03:15:02.573Z,0.00
2019-01-10T03:16:02.577Z,0.00
2019-01-10T03:17:02.562Z,0.00
2019-01-10T03:18:02.541Z,0.00
2019-01-10T03:19:02.530Z,0.00
2019-01-10T03:20:02.521Z,0.00
2019-01-10T03:21:02.509Z,0.00
2019-01-10T03:22:02.511Z,0.00
2019-01-10T03:23:02.487Z,0.00
2019-01-10T03:24:02.478Z,0.00
2019-01-10T03:25:02.474Z,0.00
2019-01-10T03:26:02.456Z,0.00
2019-01-10T03:27:02.478Z,0.00
2019-01-10T03:28:02.436Z,0.00
2019-01-10T03:29:02.424Z,0.00
2019-01-10T03:30:02.414Z,0.00
2019-01-10T03:31:02.412Z,0.00
2019-01-10T03:32:02.392Z,0.00
2019-01-10T03:33:02.407Z,0.00
2019-01-10T03:34:02.371Z,0.00
2019-01-10T03:35:02.368Z,0.00
2019-01-10T03:36:02.350Z,0.00
2019-01-10T03:37:02.340Z,0.00
2019-01-10T03:38:11.181Z,0.00
2019-01-10T03:39:02.319Z,0.00
2019-01-10T03:40:02.307Z,0.00
2019-01-10T03:41:02.296Z,0.00
2019-01-10T03:42:02.284Z,0.00
2019-01-10T03:43:02.282Z,0.00
2019-01-10T03:44:11.695Z,0.00
2019-01-10T03:45:02.253Z,0.00
2019-01-10T03:46:02.248Z,0.00
2019-01-10T03:47:02.231Z,0.00
2019-01-10T03:48:02.234Z,0.00
2019-01-10T03:49:02.220Z,0.00
2019-01-10T03:50:02.201Z,0.00
2019-01-10T03:51:02.192Z,0.00
2019-01-10T03:52:02.182Z,0.00
2019-01-10T03:53:02.178Z,0.00
2019-01-10T03:54:11.223Z,0.00
2019-01-10T03:55:02.154Z,0.00
2019-01-10T03:56:02.138Z,0.00
2019-01-10T03:57:02.127Z,0.00
2019-01-10T03:58:02.127Z,0.00
2019-01-10T03:59:02.105Z,0.00
2019-01-10T04:00:02.096Z,0.00
2019-01-10T04:01:02.082Z,0.00
2019-01-10T04:02:02.074Z,0.00
2019-01-10T04:03:02.075Z,0.00
2019-01-10T04:04:02.054Z,0.00
2019-01-10T04:05:02.045Z,0.00
2019-01-10T04:06:02.031Z,0.00
2019-01-10T04:07:02.020Z,0.00
2019-01-10T04:08:02.022Z,0.00
2019-01-10T04:09:02.000Z,0.00
2019-01-10T04:10:01.986Z,0.00
2019-01-10T04:11:01.979Z,0.00
2019-01-10T04:12:03.397Z,0.00
2019-01-10T04:13:01.982Z,0.00
2019-01-10T04:14:01.945Z,0.00
2019-01-10T04:15:01.934Z,0.00
2019-01-10T04:16:01.925Z,0.00
2019-01-10T04:17:01.915Z,0.00
2019-01-10T04:18:01.917Z,0.00
2019-01-10T04:19:01.894Z,0.00
2019-01-10T04:20:01.884Z,0.00
2019-01-10T04:21:01.871Z,0.00
2019-01-10T04:22:01.865Z,0.00
2019-01-10T04:23:01.865Z,0.00
2019-01-10T04:24:01.841Z,0.00
2019-01-10T04:25:01.831Z,0.00
2019-01-10T04:26:01.816Z,0.00
2019-01-10T04:27:01.807Z,0.00
2019-01-10T04:28:01.806Z,0.00
2019-01-10T04:29:01.785Z,0.00
2019-01-10T04:30:01.776Z,0.00
2019-01-10T04:31:01.767Z,0.00
2019-01-10T04:32:01.754Z,0.00
2019-01-10T04:33:01.753Z,0.00
2019-01-10T04:34:01.731Z,0.00
2019-01-10T04:35:01.722Z,0.00
2019-01-10T04:36:01.716Z,0.00
2019-01-10T04:37:01.705Z,0.00
2019-01-10T04:38:01.700Z,0.00
2019-01-10T04:39:01.678Z,0.00
2019-01-10T04:40:01.672Z,0.00
2019-01-10T04:41:01.671Z,0.00
2019-01-10T04:42:01.647Z,0.00
2019-01-10T04:43:01.648Z,0.00
2019-01-10T04:44:06.970Z,0.00
2019-01-10T04:45:02.614Z,0.00
2019-01-10T04:46:01.602Z,0.00
2019-01-10T04:47:01.663Z,0.00
2019-01-10T04:48:01.793Z,0.00
2019-01-10T04:49:01.576Z,0.00
2019-01-10T04:50:01.565Z,0.00
2019-01-10T04:51:01.550Z,0.00
2019-01-10T04:52:01.559Z,0.00
2019-01-10T04:53:01.533Z,0.00
2019-01-10T04:54:01.531Z,0.00
2019-01-10T04:55:01.513Z,0.00
2019-01-10T04:56:01.499Z,0.00
2019-01-10T04:57:01.488Z,0.00
2019-01-10T04:58:01.475Z,0.00
2019-01-10T04:59:01.477Z,0.00
2019-01-10T05:00:01.478Z,0.00
2019-01-10T05:01:01.448Z,0.00
2019-01-10T05:02:01.436Z,0.00
2019-01-10T05:03:01.422Z,0.00
2019-01-10T05:04:01.427Z,0.00
2019-01-10T05:05:01.877Z,0.00
2019-01-10T05:06:01.389Z,0.00
2019-01-10T05:07:01.381Z,0.00
2019-01-10T05:08:01.366Z,0.00
2019-01-10T05:09:01.370Z,0.00
2019-01-10T05:10:01.348Z,0.00
2019-01-10T05:11:01.340Z,0.00
2019-01-10T05:12:01.325Z,0.00
2019-01-10T05:13:01.317Z,0.00
2019-01-10T05:14:01.314Z,0.00
2019-01-10T05:15:01.296Z,0.00
2019-01-10T05:16:01.286Z,0.00
2019-01-10T05:17:01.280Z,0.00
2019-01-10T05:18:01.270Z,0.00
2019-01-10T05:19:01.273Z,0.00
2019-01-10T05:20:01.243Z,0.00
2019-01-10T05:21:01.230Z,0.00
2019-01-10T05:22:01.221Z,0.00
2019-01-10T05:23:01.210Z,0.00
2019-01-10T05:24:01.210Z,0.00
2019-01-10T05:25:01.187Z,0.00
2019-01-10T05:26:01.178Z,0.00
2019-01-10T05:27:01.173Z,0.00
2019-01-10T05:28:01.161Z,0.00
2019-01-10T05:29:01.159Z,0.00
2019-01-10T05:30:01.138Z,0.00
2019-01-10T05:31:01.122Z,0.00
2019-01-10T05:32:02.558Z,0.00
2019-01-10T05:33:01.109Z,0.00
2019-01-10T05:34:01.105Z,0.00
2019-01-10T05:35:01.083Z,0.00
2019-01-10T05:36:01.076Z,0.00
2019-01-10T05:37:01.060Z,0.00
2019-01-10T05:38:01.056Z,0.00
2019-01-10T05:39:01.052Z,0.00
2019-01-10T05:40:01.030Z,0.00
2019-01-10T05:41:01.021Z,0.00
2019-01-10T05:42:01.015Z,0.00
2019-01-10T05:43:00.996Z,0.00
2019-01-10T05:44:01.003Z,0.00
2019-01-10T05:45:00.974Z,0.00
2019-01-10T05:46:00.971Z,0.00
2019-01-10T05:47:00.953Z,0.00
2019-01-10T05:48:00.954Z,0.00
2019-01-10T05:49:00.945Z,0.00
2019-01-10T05:50:00.922Z,0.00
2019-01-10T05:51:00.916Z,0.00
2019-01-10T05:52:00.904Z,0.00
2019-01-10T05:53:00.892Z,0.00
2019-01-10T05:54:00.896Z,0.00
2019-01-10T05:55:00.889Z,0.00
2019-01-10T05:56:00.858Z,0.00
2019-01-10T05:57:00.903Z,0.00
2019-01-10T05:58:00.837Z,0.00
2019-01-10T05:59:00.843Z,0.00
2019-01-10T06:00:00.819Z,0.00
2019-01-10T06:01:00.803Z,0.00
2019-01-10T06:02:00.797Z,0.00
2019-01-10T06:03:00.785Z,0.00
2019-01-10T06:04:00.784Z,0.00
2019-01-10T06:05:00.771Z,0.00
2019-01-10T06:06:00.752Z,0.00
2019-01-10T06:07:00.741Z,0.00
2019-01-10T06:08:00.732Z,0.00
2019-01-10T06:09:00.760Z,0.00
2019-01-10T06:10:00.713Z,0.00
2019-01-10T06:11:00.699Z,0.00
2019-01-10T06:12:00.686Z,0.00
2019-01-10T06:13:00.679Z,0.00
2019-01-10T06:14:00.667Z,0.00
2019-01-10T06:15:00.672Z,0.00
2019-01-10T06:16:00.645Z,0.00
2019-01-10T06:17:00.635Z,0.00
2019-01-10T06:18:00.624Z,0.00
2019-01-10T06:19:00.616Z,0.00
2019-01-10T06:20:00.611Z,0.00
2019-01-10T06:21:00.593Z,0.00
2019-01-10T06:22:00.603Z,0.00
2019-01-10T06:23:00.569Z,0.00
2019-01-10T06:24:00.559Z,0.00
2019-01-10T06:25:00.564Z,0.00
2019-01-10T06:26:00.541Z,0.00
2019-01-10T06:27:00.531Z,0.00
2019-01-10T06:28:00.516Z,0.00
2019-01-10T06:29:00.509Z,0.00
2019-01-10T06:30:00.509Z,0.00
2019-01-10T06:31:00.484Z,0.00
2019-01-10T06:32:00.474Z,0.00
2019-01-10T06:33:00.465Z,0.00
2019-01-10T06:34:00.456Z,0.00
2019-01-10T06:35:00.462Z,0.00
2019-01-10T06:36:00.438Z,0.00
2019-01-10T06:37:00.419Z,0.00
2019-01-10T06:38:00.423Z,0.00
2019-01-10T06:39:00.404Z,0.00
2019-01-10T06:40:00.406Z,0.00
2019-01-10T06:41:00.378Z,0.00
2019-01-10T06:42:00.366Z,0.00
2019-01-10T06:43:00.357Z,0.00
2019-01-10T06:44:00.348Z,0.00
2019-01-10T06:45:00.370Z,0.00
2019-01-10T06:46:00.324Z,0.00
2019-01-10T06:47:00.314Z,4.00
2019-01-10T06:48:00.304Z,4.00
2019-01-10T06:49:00.293Z,4.00
2019-01-10T06:50:00.292Z,4.00
2019-01-10T06:51:00.295Z,4.00
2019-01-10T06:52:00.264Z,4.00
2019-01-10T06:53:00.258Z,4.00
2019-01-10T06:54:00.245Z,4.00
2019-01-10T06:55:00.243Z,4.00
2019-01-10T06:56:00.218Z,4.00
2019-01-10T06:57:00.213Z,8.00
2019-01-10T06:58:00.199Z,8.00
2019-01-10T06:59:00.186Z,12.00
2019-01-10T07:00:00.304Z,12.00
2019-01-10T07:01:00.167Z,12.00
2019-01-10T07:02:00.157Z,12.00
2019-01-10T07:03:00.146Z,8.00
2019-01-10T07:04:00.138Z,12.00
2019-01-10T07:05:00.289Z,12.00
2019-01-10T07:06:00.122Z,20.00
2019-01-10T07:07:00.184Z,20.00
2019-01-10T07:08:00.099Z,20.00
2019-01-10T07:09:00.092Z,32.00
2019-01-10T07:10:00.282Z,32.00
2019-01-10T07:11:00.064Z,36.00
2019-01-10T07:12:00.059Z,44.00
2019-01-10T07:13:00.049Z,48.00
2019-01-10T07:14:00.028Z,56.00
2019-01-10T07:15:00.032Z,56.00
2019-01-10T07:16:00.024Z,68.00
2019-01-10T07:16:59.998Z,72.00
2019-01-10T07:17:59.987Z,80.00
2019-01-10T07:18:59.980Z,84.00
2019-01-10T07:19:59.968Z,92.00
2019-01-10T07:20:59.973Z,100.00
2019-01-10T07:21:59.990Z,108.00
2019-01-10T07:22:59.985Z,112.00
2019-01-10T07:23:59.938Z,120.00
2019-01-10T07:24:59.920Z,112.00
2019-01-10T07:25:59.941Z,120.00
2019-01-10T07:26:59.916Z,116.00
2019-01-10T07:27:59.887Z,108.00
2019-01-10T07:28:59.880Z,124.00
2019-01-10T07:29:59.910Z,128.00
2019-01-10T07:30:59.870Z,128.00
2019-01-10T07:31:59.847Z,116.00
2019-01-10T07:32:59.833Z,120.00
2019-01-10T07:33:59.835Z,132.00
2019-01-10T07:34:59.821Z,144.00
2019-01-10T07:35:59.836Z,148.00
2019-01-10T07:36:59.830Z,176.00
2019-01-10T07:37:59.788Z,196.00
2019-01-10T07:38:59.806Z,208.00
2019-01-10T07:39:59.762Z,212.00
2019-01-10T07:40:59.801Z,224.00
2019-01-10T07:41:59.742Z,248.00
2019-01-10T07:42:59.760Z,252.00
2019-01-10T07:43:59.726Z,264.00
2019-01-10T07:45:02.849Z,256.00
2019-01-10T07:45:59.718Z,252.00
2019-01-10T07:46:59.687Z,288.00
2019-01-10T07:47:59.680Z,268.00
2019-01-10T07:48:59.676Z,280.00
2019-01-10T07:49:59.664Z,268.00
2019-01-10T07:50:59.709Z,248.00
2019-01-10T07:51:59.639Z,256.00
2019-01-10T07:52:59.635Z,228.00
2019-01-10T07:53:59.660Z,224.00
2019-01-10T07:54:59.630Z,224.00
2019-01-10T07:55:59.705Z,212.00
2019-01-10T07:56:59.580Z,204.00
2019-01-10T07:57:59.654Z,180.00
2019-01-10T07:58:59.588Z,176.00
2019-01-10T07:59:59.547Z,180.00
2019-01-10T08:00:59.560Z,192.00
2019-01-10T08:01:59.541Z,180.00
2019-01-10T08:02:59.520Z,196.00
2019-01-10T08:03:59.607Z,240.00
2019-01-10T08:04:59.531Z,264.00
2019-01-10T08:05:59.526Z,232.00
2019-01-10T08:06:59.473Z,232.00
2019-01-10T08:07:59.544Z,300.00
2019-01-10T08:08:59.705Z,292.00
2019-01-10T08:09:59.453Z,296.00
2019-01-10T08:10:59.524Z,300.00
2019-01-10T08:12:00.666Z,328.00
2019-01-10T08:12:59.414Z,372.00
2019-01-10T08:13:59.427Z,340.00
2019-01-10T08:14:59.393Z,408.00
2019-01-10T08:15:59.392Z,408.00
2019-01-10T08:16:59.396Z,392.00
2019-01-10T08:17:59.367Z,460.00
2019-01-10T08:18:59.366Z,428.00
2019-01-10T08:19:59.373Z,372.00
2019-01-10T08:20:59.333Z,388.00
2019-01-10T08:21:59.364Z,392.00
2019-01-10T08:22:59.306Z,472.00
2019-01-10T08:23:59.293Z,436.00
2019-01-10T08:24:59.309Z,404.00
2019-01-10T08:25:59.326Z,364.00
2019-01-10T08:26:59.283Z,416.00
2019-01-10T08:27:59.256Z,436.00
2019-01-10T08:28:59.283Z,472.00
2019-01-10T08:29:59.233Z,472.00
2019-01-10T08:30:59.235Z,444.00
2019-01-10T08:31:59.227Z,444.00
2019-01-10T08:32:59.213Z,356.00
2019-01-10T08:33:59.186Z,304.00
2019-01-10T08:34:59.172Z,288.00
2019-01-10T08:35:59.166Z,284.00
2019-01-10T08:36:59.184Z,264.00
2019-01-10T08:37:59.141Z,240.00
2019-01-10T08:38:59.145Z,232.00
2019-01-10T08:39:59.120Z,236.00
2019-01-10T08:40:59.106Z,260.00
2019-01-10T08:41:59.111Z,268.00
2019-01-10T08:42:59.090Z,340.00
2019-01-10T08:43:59.087Z,380.00
2019-01-10T08:44:59.105Z,360.00
2019-01-10T08:45:59.056Z,336.00
2019-01-10T08:46:59.051Z,368.00
2019-01-10T08:47:59.050Z,460.00
2019-01-10T08:48:59.028Z,372.00
2019-01-10T08:49:59.011Z,372.00
2019-01-10T08:50:59.001Z,424.00
2019-01-10T08:51:59.007Z,432.00
2019-01-10T08:52:58.992Z,544.00
2019-01-10T08:53:58.969Z,644.00
2019-01-10T08:54:58.956Z,560.00
2019-01-10T08:55:58.956Z,576.00
2019-01-10T08:56:58.982Z,620.00
2019-01-10T08:57:58.927Z,736.00
2019-01-10T08:58:58.916Z,764.00
2019-01-10T08:59:58.945Z,836.00
2019-01-10T09:00:58.895Z,756.00
2019-01-10T09:01:58.895Z,816.00
2019-01-10T09:02:58.873Z,912.00
2019-01-10T09:03:58.870Z,936.00
2019-01-10T09:04:58.848Z,896.00
2019-01-10T09:06:07.876Z,1028.00
2019-01-10T09:06:59.833Z,1072.00
2019-01-10T09:07:58.814Z,1072.00
2019-01-10T09:09:01.043Z,924.00
2019-01-10T09:09:58.791Z,776.00
2019-01-10T09:10:58.783Z,912.00
2019-01-10T09:11:58.790Z,860.00
2019-01-10T09:12:58.763Z,1116.00
2019-01-10T09:13:58.752Z,1104.00
2019-01-10T09:14:58.741Z,1100.00
2019-01-10T09:15:58.728Z,916.00
2019-01-10T09:16:58.732Z,1064.00
2019-01-10T09:17:58.713Z,1324.00
2019-01-10T09:18:58.704Z,1572.00
2019-01-10T09:19:58.686Z,1540.00
2019-01-10T09:21:04.245Z,1500.00
2019-01-10T09:21:59.674Z,1540.00
2019-01-10T09:22:58.658Z,1876.00
2019-01-10T09:23:58.649Z,2028.00
2019-01-10T09:24:58.644Z,2036.00
2019-01-10T09:25:58.624Z,1912.00
2019-01-10T09:26:58.671Z,1800.00
2019-01-10T09:27:58.602Z,1692.00
2019-01-10T09:28:58.592Z,1652.00
2019-01-10T09:29:58.582Z,1892.00
2019-01-10T09:30:58.576Z,2084.00
2019-01-10T09:31:58.563Z,2252.00
2019-01-10T09:32:58.562Z,2404.00
2019-01-10T09:33:58.538Z,2040.00
2019-01-10T09:34:58.527Z,2516.00
2019-01-10T09:35:58.517Z,2720.00
2019-01-10T09:36:58.511Z,3208.00
2019-01-10T09:37:58.568Z,3548.00
2019-01-10T09:38:58.575Z,3584.00
2019-01-10T09:39:58.513Z,4188.00
2019-01-10T09:40:58.472Z,3856.00
2019-01-10T09:41:58.494Z,3932.00
2019-01-10T09:42:58.460Z,4472.00
2019-01-10T09:43:58.485Z,4372.00
2019-01-10T09:44:58.472Z,4540.00
2019-01-10T09:45:58.417Z,3436.00
2019-01-10T09:46:58.418Z,3592.00
2019-01-10T09:47:58.461Z,3488.00
2019-01-10T09:48:58.441Z,3384.00
2019-01-10T09:49:58.414Z,3144.00
2019-01-10T09:50:58.378Z,2976.00
2019-01-10T09:51:58.410Z,3548.00
2019-01-10T09:52:58.368Z,3592.00
2019-01-10T09:53:58.377Z,2524.00
2019-01-10T09:55:07.756Z,2144.00
2019-01-10T09:55:58.299Z,2964.00
2019-01-10T09:56:58.291Z,2864.00
2019-01-10T09:57:58.290Z,2076.00
2019-01-10T09:58:58.271Z,2120.00
2019-01-10T09:59:58.260Z,1896.00
2019-01-10T10:00:58.270Z,1312.00
2019-01-10T10:01:58.397Z,1284.00
2019-01-10T10:02:58.236Z,1624.00
2019-01-10T10:03:58.214Z,1076.00
2019-01-10T10:04:58.216Z,1048.00
2019-01-10T10:06:07.352Z,932.00
2019-01-10T10:06:59.186Z,856.00
2019-01-10T10:07:58.191Z,748.00
2019-01-10T10:08:58.251Z,984.00
2019-01-10T10:09:58.151Z,1072.00
2019-01-10T10:10:58.140Z,1076.00
2019-01-10T10:11:58.132Z,1180.00
2019-01-10T10:12:58.132Z,1480.00
2019-01-10T10:13:58.108Z,1648.00
2019-01-10T10:14:58.098Z,1848.00
2019-01-10T10:15:58.093Z,1436.00
2019-01-10T10:16:58.078Z,1272.00
2019-01-10T10:17:58.079Z,1272.00
2019-01-10T10:18:58.055Z,992.00
2019-01-10T10:19:58.044Z,984.00
2019-01-10T10:20:58.045Z,904.00
2019-01-10T10:21:58.026Z,804.00
2019-01-10T10:22:58.025Z,880.00
2019-01-10T10:23:58.001Z,732.00
2019-01-10T10:24:57.990Z,700.00
2019-01-10T10:25:57.980Z,708.00
2019-01-10T10:26:57.970Z,680.00
2019-01-10T10:27:57.970Z,944.00
2019-01-10T10:28:57.948Z,984.00
2019-01-10T10:29:57.945Z,888.00
2019-01-10T10:30:57.925Z,868.00
2019-01-10T10:31:57.914Z,916.00
2019-01-10T10:32:57.921Z,976.00
2019-01-10T10:33:57.898Z,1276.00
2019-01-10T10:34:57.883Z,1456.00
2019-01-10T10:35:57.877Z,1660.00
2019-01-10T10:36:57.863Z,1592.00
2019-01-10T10:37:57.866Z,1380.00
2019-01-10T10:38:57.843Z,1488.00
2019-01-10T10:39:57.834Z,1596.00
2019-01-10T10:40:57.823Z,1864.00
2019-01-10T10:41:57.823Z,1576.00
2019-01-10T10:42:57.810Z,1404.00
2019-01-10T10:43:57.789Z,1528.00
2019-01-10T10:44:57.778Z,1264.00
2019-01-10T10:46:01.720Z,1100.00
2019-01-10T10:46:57.759Z,1420.00
2019-01-10T10:47:57.784Z,1816.00
2019-01-10T10:48:57.736Z,2228.00
2019-01-10T10:49:57.727Z,2176.00
2019-01-10T10:50:57.712Z,2012.00
2019-01-10T10:51:57.710Z,1820.00
2019-01-10T10:52:57.697Z,1732.00
2019-01-10T10:53:57.694Z,1672.00
2019-01-10T10:54:57.671Z,1608.00
2019-01-10T10:55:57.661Z,1412.00
2019-01-10T10:56:57.670Z,1672.00
2019-01-10T10:57:57.645Z,2100.00
2019-01-10T10:58:57.645Z,1664.00
2019-01-10T10:59:57.617Z,1660.00
2019-01-10T11:00:57.606Z,1912.00
2019-01-10T11:01:57.599Z,2044.00
2019-01-10T11:02:57.585Z,2408.00
2019-01-10T11:03:57.585Z,3092.00
2019-01-10T11:04:57.565Z,3416.00
2019-01-10T11:05:57.556Z,3528.00
2019-01-10T11:06:57.544Z,3652.00
2019-01-10T11:07:57.533Z,4532.00
2019-01-10T11:08:57.536Z,8096.00
2019-01-10T11:09:57.511Z,12804.00
2019-01-10T11:10:57.502Z,4200.00
2019-01-10T11:11:57.491Z,3816.00
2019-01-10T11:12:57.480Z,4728.00
2019-01-10T11:13:57.482Z,8908.00
2019-01-10T11:14:57.458Z,9448.00
2019-01-10T11:15:57.449Z,7764.00
2019-01-10T11:16:57.437Z,5712.00
2019-01-10T11:17:57.427Z,23712.00
2019-01-10T11:18:57.427Z,8876.00
2019-01-10T11:19:57.406Z,5500.00
2019-01-10T11:20:57.394Z,6420.00
2019-01-10T11:21:57.381Z,6356.00
2019-01-10T11:22:57.374Z,4636.00
2019-01-10T11:23:57.372Z,4048.00
2019-01-10T11:24:57.349Z,4068.00
2019-01-10T11:25:57.343Z,27776.00
2019-01-10T11:26:57.333Z,4604.00
2019-01-10T11:27:57.320Z,6496.00
2019-01-10T11:28:57.319Z,7040.00
2019-01-10T11:29:57.296Z,6404.00
2019-01-10T11:30:57.295Z,6644.00
2019-01-10T11:31:57.276Z,7304.00
2019-01-10T11:32:57.272Z,4584.00
2019-01-10T11:33:57.265Z,4612.00
2019-01-10T11:34:57.245Z,4120.00
2019-01-10T11:35:57.229Z,3852.00
2019-01-10T11:36:57.221Z,3876.00
2019-01-10T11:37:57.211Z,3028.00
2019-01-10T11:38:57.213Z,3004.00
2019-01-10T11:39:57.188Z,3080.00
2019-01-10T11:40:57.198Z,2272.00
2019-01-10T11:41:57.170Z,2280.00
2019-01-10T11:42:57.158Z,1912.00
2019-01-10T11:43:57.156Z,2288.00
2019-01-10T11:44:57.134Z,1988.00
2019-01-10T11:45:57.129Z,1892.00
2019-01-10T11:46:57.112Z,2300.00
2019-01-10T11:47:57.101Z,2496.00
2019-01-10T11:48:57.099Z,2560.00
2019-01-10T11:49:57.081Z,2668.00
2019-01-10T11:50:57.080Z,2760.00
2019-01-10T11:51:57.060Z,2296.00
2019-01-10T11:52:57.051Z,1908.00
2019-01-10T11:53:57.050Z,2052.00
2019-01-10T11:54:57.032Z,2192.00
2019-01-10T11:55:57.015Z,2084.00
2019-01-10T11:56:57.006Z,2148.00
2019-01-10T11:57:56.994Z,2136.00
2019-01-10T11:58:57.003Z,2212.00
2019-01-10T11:59:56.975Z,2504.00
2019-01-10T12:00:56.969Z,2308.00
2019-01-10T12:01:56.953Z,2484.00
2019-01-10T12:02:56.943Z,2600.00
2019-01-10T12:03:56.979Z,3360.00
2019-01-10T12:04:56.920Z,3192.00
2019-01-10T12:05:56.912Z,2768.00
2019-01-10T12:06:56.901Z,2732.00
2019-01-10T12:07:56.889Z,2532.00
2019-01-10T12:08:56.879Z,2092.00
2019-01-10T12:09:56.880Z,1724.00
2019-01-10T12:10:56.974Z,1600.00
2019-01-10T12:11:56.851Z,1580.00
2019-01-10T12:12:56.836Z,1836.00
2019-01-10T12:13:56.827Z,2960.00
2019-01-10T12:14:56.826Z,21632.00
2019-01-10T12:15:56.807Z,55712.00
2019-01-10T12:16:56.794Z,17952.00
2019-01-10T12:17:56.782Z,7504.00
2019-01-10T12:18:59.313Z,11472.00
2019-01-10T12:19:56.774Z,39424.00
2019-01-10T12:20:56.753Z,99264.00
2019-01-10T12:21:56.743Z,65376.00
2019-01-10T12:22:56.727Z,82464.00
2019-01-10T12:23:56.719Z,81312.00
2019-01-10T12:24:56.719Z,39456.00
2019-01-10T12:25:56.701Z,27712.00
2019-01-10T12:26:56.688Z,9076.00
2019-01-10T12:27:56.679Z,6536.00
2019-01-10T12:28:56.664Z,3120.00
2019-01-10T12:29:56.662Z,1992.00
2019-01-10T12:30:56.642Z,1956.00
2019-01-10T12:31:56.632Z,1876.00
2019-01-10T12:32:56.664Z,1852.00
2019-01-10T12:33:56.609Z,1788.00
2019-01-10T12:34:56.611Z,2032.00
2019-01-10T12:35:56.591Z,2432.00
2019-01-10T12:37:00.552Z,2052.00
2019-01-10T12:37:56.565Z,1652.00
2019-01-10T12:38:56.571Z,1392.00
2019-01-10T12:39:56.565Z,1292.00
2019-01-10T12:40:56.536Z,1392.00
2019-01-10T12:41:56.524Z,1300.00
2019-01-10T12:42:56.512Z,1212.00
2019-01-10T12:43:56.501Z,1144.00
2019-01-10T12:44:56.507Z,944.00
2019-01-10T12:45:56.480Z,744.00
2019-01-10T12:46:56.475Z,720.00
2019-01-10T12:47:56.459Z,816.00
2019-01-10T12:48:56.451Z,936.00
2019-01-10T12:49:56.448Z,1120.00
2019-01-10T12:50:56.475Z,1416.00
2019-01-10T12:51:56.417Z,1640.00
2019-01-10T12:52:56.405Z,1468.00